createdAt,value
2024-01-09T00:02:29.914Z,1.50
2024-01-09T00:05:32.589Z,1.48
2024-01-09T00:08:35.609Z,1.30
2024-01-09T00:11:38.244Z,1.35
2024-01-09T00:14:40.346Z,1.40
2024-01-09T00:17:43.582Z,1.42
2024-01-09T00:20:46.600Z,1.45
2024-01-09T00:23:49.636Z,1.50
2024-01-09T00:26:52.498Z,1.42
2024-01-09T00:29:55.253Z,1.50
2024-01-09T00:32:57.789Z,1.60
2024-01-09T00:36:00.371Z,1.40
2024-01-09T00:39:03.254Z,1.60
2024-01-09T00:42:06.133Z,1.52
2024-01-09T00:45:08.564Z,1.55
2024-01-09T00:48:11.649Z,1.58
2024-01-09T00:51:14.637Z,1.48
2024-01-09T00:54:16.993Z,1.58
2024-01-09T00:57:20.126Z,1.30
2024-01-09T01:00:22.778Z,1.50
2024-01-09T01:03:24.991Z,1.60
2024-01-09T01:06:27.971Z,1.27
2024-01-09T01:09:30.339Z,1.27
2024-01-09T01:12:32.774Z,1.17
2024-01-09T01:15:35.137Z,1.40
2024-01-09T01:18:37.267Z,1.40
2024-01-09T01:21:40.148Z,1.60
2024-01-09T01:24:43.219Z,1.48
2024-01-09T01:27:46.527Z,1.55
2024-01-09T01:30:49.105Z,1.45
2024-01-09T01:33:51.281Z,1.33
2024-01-09T01:36:54.283Z,1.25
2024-01-09T01:39:57.165Z,1.58
2024-01-09T01:42:59.547Z,1.38
2024-01-09T01:46:01.917Z,1.38
2024-01-09T01:49:04.454Z,1.35
2024-01-09T01:52:06.856Z,1.40
2024-01-09T01:55:08.984Z,1.30
2024-01-09T01:58:12.071Z,1.40
2024-01-09T02:01:14.531Z,1.33
2024-01-09T02:04:16.884Z,1.30
2024-01-09T02:07:19.922Z,1.30
2024-01-09T02:10:23.362Z,1.38
2024-01-09T02:13:26.433Z,1.30
2024-01-09T02:16:28.992Z,1.50
2024-01-09T02:19:32.185Z,1.50
2024-01-09T02:22:34.547Z,1.30
2024-01-09T02:25:37.033Z,1.70
2024-01-09T02:28:39.452Z,1.42
2024-01-09T02:31:41.860Z,1.58
2024-01-09T02:34:44.482Z,1.60
2024-01-09T02:37:47.139Z,1.60
2024-01-09T02:40:49.536Z,1.40
2024-01-09T02:43:51.758Z,1.40
2024-01-09T02:46:54.195Z,1.38
2024-01-09T02:49:56.662Z,1.20
2024-01-09T02:52:58.964Z,1.40
2024-01-09T02:56:02.081Z,1.27
2024-01-09T02:59:05.548Z,1.20
2024-01-09T03:02:08.582Z,1.40
2024-01-09T03:05:11.666Z,1.30
2024-01-09T03:08:14.274Z,1.35
2024-01-09T03:11:17.277Z,1.10
2024-01-09T03:14:19.743Z,1.50
2024-01-09T03:17:23.829Z,1.30
2024-01-09T03:20:28.200Z,1.35
2024-01-09T03:23:30.640Z,1.58
2024-01-09T03:26:33.714Z,1.35
2024-01-09T03:29:36.109Z,1.40
2024-01-09T03:32:38.561Z,1.50
2024-01-09T03:35:41.489Z,1.40
2024-01-09T03:38:44.271Z,1.20
2024-01-09T03:41:46.761Z,1.40
2024-01-09T03:44:50.055Z,1.23
2024-01-09T03:47:52.820Z,1.30
2024-01-09T03:50:55.382Z,1.30
2024-01-09T03:53:58.340Z,1.42
2024-01-09T03:57:00.668Z,1.30
2024-01-09T04:00:03.020Z,1.23
2024-01-09T04:03:06.892Z,1.30
2024-01-09T04:06:09.834Z,1.45
2024-01-09T04:09:12.837Z,1.50
2024-01-09T04:12:15.470Z,1.60
2024-01-09T04:15:17.531Z,1.45
2024-01-09T04:18:19.954Z,1.52
2024-01-09T04:21:23.009Z,1.75
2024-01-09T04:24:25.077Z,1.38
2024-01-09T04:27:27.727Z,1.50
2024-01-09T04:30:30.921Z,1.50
2024-01-09T04:33:33.249Z,1.40
2024-01-09T04:36:36.437Z,1.20
2024-01-09T04:39:38.948Z,1.20
2024-01-09T04:42:41.836Z,1.40
2024-01-09T04:45:44.642Z,1.45
2024-01-09T04:48:47.340Z,1.45
2024-01-09T04:51:49.816Z,1.35
2024-01-09T04:54:52.754Z,1.60
2024-01-09T04:57:55.748Z,1.33
2024-01-09T05:00:58.875Z,1.40
2024-01-09T05:04:01.363Z,1.58
2024-01-09T05:07:03.765Z,1.35
2024-01-09T05:10:06.171Z,1.48
2024-01-09T05:13:08.577Z,1.70
2024-01-09T05:16:11.077Z,1.67
2024-01-09T05:19:13.652Z,1.50
2024-01-09T05:22:15.805Z,1.70
2024-01-09T05:25:18.300Z,1.60
2024-01-09T05:28:20.919Z,1.30
2024-01-09T05:31:24.645Z,1.25
2024-01-09T05:34:27.653Z,1.50
2024-01-09T05:37:31.322Z,1.48
2024-01-09T05:40:33.780Z,1.60
2024-01-09T05:43:39.288Z,1.50
2024-01-09T05:46:41.749Z,1.55
2024-01-09T05:49:44.165Z,1.65
2024-01-09T05:52:46.558Z,1.50
2024-01-09T05:55:48.958Z,1.63
2024-01-09T05:58:51.976Z,1.60
2024-01-09T06:01:54.869Z,1.50
2024-01-09T06:04:57.213Z,1.60
2024-01-09T06:07:59.860Z,1.77
2024-01-09T06:11:02.966Z,1.60
2024-01-09T06:14:05.911Z,1.70
2024-01-09T06:17:09.559Z,1.40
2024-01-09T06:20:11.960Z,1.60
2024-01-09T06:23:15.032Z,1.40
2024-01-09T06:26:17.662Z,1.40
2024-01-09T06:29:20.648Z,1.50
2024-01-09T06:32:23.086Z,1.50
2024-01-09T06:35:25.774Z,1.40
2024-01-09T06:38:29.357Z,1.73
2024-01-09T06:41:31.759Z,1.65
2024-01-09T06:44:34.264Z,1.50
2024-01-09T06:47:36.897Z,1.63
2024-01-09T06:50:39.454Z,1.67
2024-01-09T06:53:45.963Z,1.88
2024-01-09T06:56:49.154Z,1.70
2024-01-09T06:59:51.737Z,1.83
2024-01-09T07:02:54.239Z,1.63
2024-01-09T07:05:57.144Z,1.60
2024-01-09T07:09:00.362Z,1.70
2024-01-09T07:12:03.340Z,1.60
2024-01-09T07:15:06.314Z,1.77
2024-01-09T07:18:09.438Z,1.65
2024-01-09T07:21:11.970Z,1.60
2024-01-09T07:24:14.433Z,1.60
2024-01-09T07:27:17.342Z,1.65
2024-01-09T07:30:20.409Z,1.60
2024-01-09T07:33:23.471Z,1.58
2024-01-09T07:36:25.956Z,1.85
2024-01-09T07:39:28.537Z,1.88
2024-01-09T07:42:34.109Z,2.10
2024-01-09T07:45:38.577Z,1.70
2024-01-09T07:48:41.385Z,1.95
2024-01-09T07:51:44.354Z,1.80
2024-01-09T07:54:46.793Z,2.15
2024-01-09T07:57:49.899Z,1.80
2024-01-09T08:00:52.946Z,1.88
2024-01-09T08:03:55.480Z,1.58
2024-01-09T08:06:58.064Z,1.70
2024-01-09T08:10:00.525Z,1.58
2024-01-09T08:13:04.027Z,1.60
2024-01-09T08:16:07.157Z,1.90
2024-01-09T08:19:09.684Z,1.52
2024-01-09T08:22:12.053Z,1.75
2024-01-09T08:25:14.567Z,1.73
2024-01-09T08:28:17.432Z,1.77
2024-01-09T08:31:19.868Z,1.60
2024-01-09T08:34:22.493Z,1.65
2024-01-09T08:37:25.057Z,1.90
2024-01-09T08:40:27.387Z,1.77
2024-01-09T08:43:30.399Z,1.77
2024-01-09T08:46:33.652Z,2.00
2024-01-09T08:49:36.406Z,1.55
2024-01-09T08:52:38.842Z,1.70
2024-01-09T08:55:41.020Z,1.92
2024-01-09T08:58:43.564Z,1.83
2024-01-09T09:01:46.597Z,1.80
2024-01-09T09:04:48.994Z,1.73
2024-01-09T09:07:51.425Z,1.58
2024-01-09T09:10:53.861Z,1.83
2024-01-09T09:13:56.835Z,1.50
2024-01-09T09:16:59.205Z,1.85
2024-01-09T09:20:01.343Z,1.50
2024-01-09T09:23:05.099Z,1.80
2024-01-09T09:26:08.155Z,1.70
2024-01-09T09:29:18.364Z,1.70
2024-01-09T09:32:26.129Z,1.70
2024-01-09T09:35:29.730Z,1.80
2024-01-09T09:38:32.200Z,2.03
2024-01-09T09:41:34.987Z,1.85
2024-01-09T09:44:38.243Z,1.70
2024-01-09T09:47:41.478Z,1.60
2024-01-09T09:50:44.135Z,1.80
2024-01-09T09:53:46.552Z,1.80
2024-01-09T09:56:49.006Z,2.08
2024-01-09T09:59:51.502Z,1.60
2024-01-09T10:02:54.045Z,1.77
2024-01-09T10:05:57.153Z,1.70
2024-01-09T10:09:00.199Z,1.52
2024-01-09T10:12:02.914Z,1.60
2024-01-09T10:15:05.747Z,1.67
2024-01-09T10:18:08.292Z,1.70
2024-01-09T10:21:11.479Z,1.52
2024-01-09T10:24:13.993Z,1.50
2024-01-09T10:27:16.429Z,1.67
2024-01-09T10:30:19.687Z,1.70
2024-01-09T10:33:22.952Z,1.85
2024-01-09T10:36:25.993Z,1.60
2024-01-09T10:39:28.964Z,1.88
2024-01-09T10:42:31.700Z,1.67
2024-01-09T10:45:34.937Z,1.48
2024-01-09T10:48:37.461Z,1.70
2024-01-09T10:51:40.698Z,1.63
2024-01-09T10:54:44.150Z,1.65
2024-01-09T10:57:46.879Z,1.60
2024-01-09T11:00:49.379Z,1.67
2024-01-09T11:03:52.453Z,1.50
2024-01-09T11:06:54.955Z,1.40
2024-01-09T11:09:57.603Z,1.52
2024-01-09T11:13:01.354Z,1.50
2024-01-09T11:16:03.878Z,1.40
2024-01-09T11:19:06.700Z,1.40
2024-01-09T11:22:09.101Z,1.40
2024-01-09T11:25:11.416Z,1.70
2024-01-09T11:28:13.889Z,1.50
2024-01-09T11:31:16.432Z,1.40
2024-01-09T11:34:18.958Z,1.90
2024-01-09T11:37:21.427Z,1.55
2024-01-09T11:40:24.462Z,1.30
2024-01-09T11:43:26.868Z,1.48
2024-01-09T11:46:30.110Z,1.50
2024-01-09T11:49:32.763Z,1.60
2024-01-09T11:52:35.424Z,1.30
2024-01-09T11:55:37.906Z,1.33
2024-01-09T11:58:40.906Z,1.33
2024-01-09T12:01:43.967Z,1.38
2024-01-09T12:04:46.448Z,1.30
2024-01-09T12:07:49.396Z,1.35
2024-01-09T12:10:51.869Z,1.60
2024-01-09T12:13:54.465Z,1.30
2024-01-09T12:16:56.892Z,1.42
2024-01-09T12:19:59.293Z,1.50
2024-01-09T12:23:01.775Z,1.67
2024-01-09T12:26:04.197Z,1.40
2024-01-09T12:29:06.858Z,1.40
2024-01-09T12:32:09.303Z,1.20
2024-01-09T12:35:11.734Z,1.50
2024-01-09T12:38:14.699Z,1.40
2024-01-09T12:41:17.708Z,1.27
2024-01-09T12:44:20.114Z,1.33
2024-01-09T12:47:22.677Z,1.65
2024-01-09T12:50:25.892Z,1.40
2024-01-09T12:53:29.071Z,1.20
2024-01-09T12:56:31.858Z,1.50
2024-01-09T12:59:35.175Z,1.30
2024-01-09T13:02:38.156Z,1.20
2024-01-09T13:05:40.732Z,1.30
2024-01-09T13:08:43.686Z,1.20
2024-01-09T13:11:46.639Z,1.23
2024-01-09T13:14:49.589Z,1.10
2024-01-09T13:17:52.766Z,1.17
2024-01-09T13:20:55.268Z,1.10
2024-01-09T13:24:02.460Z,1.23
2024-01-09T13:27:07.063Z,1.35
2024-01-09T13:33:14.401Z,1.30
2024-01-09T13:36:19.514Z,1.20
2024-01-09T13:39:22.388Z,1.23
2024-01-09T13:42:24.815Z,1.40
2024-01-09T13:45:27.966Z,1.20
2024-01-09T13:48:31.040Z,1.20
2024-01-09T13:54:38.498Z,1.23
2024-01-09T13:57:40.911Z,1.10
2024-01-09T14:00:43.048Z,1.10
2024-01-09T14:03:45.673Z,1.20
2024-01-09T14:06:48.401Z,1.20
2024-01-09T14:09:51.363Z,1.33
2024-01-09T14:12:53.857Z,1.42
2024-01-09T14:15:56.253Z,1.27
2024-01-09T14:18:58.693Z,1.15
2024-01-09T14:22:02.855Z,1.15
2024-01-09T14:25:05.776Z,1.45
2024-01-09T14:28:08.895Z,1.30
2024-01-09T14:31:12.005Z,1.05
2024-01-09T14:34:14.424Z,1.20
2024-01-09T14:37:17.447Z,1.00
2024-01-09T14:40:19.952Z,1.20
2024-01-09T14:43:22.599Z,1.13
2024-01-09T14:46:25.482Z,1.10
2024-01-09T14:49:28.279Z,1.30
2024-01-09T14:52:30.936Z,1.40
2024-01-09T14:55:33.450Z,1.38
2024-01-09T14:58:36.539Z,1.33
2024-01-09T15:01:42.321Z,1.23
2024-01-09T15:04:45.796Z,1.40
2024-01-09T15:07:48.936Z,1.40
2024-01-09T15:10:53.128Z,1.00
2024-01-09T15:13:57.109Z,1.48
2024-01-09T15:17:00.583Z,1.45
2024-01-09T15:20:04.188Z,1.20
2024-01-09T15:23:06.768Z,1.02
2024-01-09T15:26:10.528Z,1.25
2024-01-09T15:29:13.764Z,1.20
2024-01-09T15:32:17.927Z,1.05
2024-01-09T15:35:20.465Z,1.30
2024-01-09T15:38:23.452Z,1.35
2024-01-09T15:41:26.976Z,1.25
2024-01-09T15:44:30.001Z,1.20
2024-01-09T15:47:32.947Z,1.23
2024-01-09T15:50:35.396Z,1.48
2024-01-09T15:53:38.388Z,1.30
2024-01-09T15:56:40.855Z,1.20
2024-01-09T15:59:43.262Z,1.30
2024-01-09T16:02:46.474Z,1.40
2024-01-09T16:05:49.390Z,1.40
2024-01-09T16:08:52.905Z,1.23
2024-01-09T16:11:56.249Z,1.40
2024-01-09T16:14:58.967Z,1.30
2024-01-09T16:18:02.375Z,1.25
2024-01-09T16:21:05.707Z,1.15
2024-01-09T16:24:08.275Z,1.10
2024-01-09T16:27:11.521Z,1.30
2024-01-09T16:30:14.543Z,1.00
2024-01-09T16:33:17.209Z,1.13
2024-01-09T16:36:20.289Z,1.20
2024-01-09T16:39:22.782Z,1.20
2024-01-09T16:42:25.126Z,1.08
2024-01-09T16:45:27.698Z,1.25
2024-01-09T16:48:35.623Z,1.17
2024-01-09T16:51:44.073Z,1.23
2024-01-09T16:54:46.931Z,1.23
2024-01-09T16:57:50.263Z,1.40
2024-01-09T17:00:53.122Z,1.42
2024-01-09T17:03:55.619Z,1.30
2024-01-09T17:06:58.251Z,1.23
2024-01-09T17:10:01.390Z,1.48
2024-01-09T17:13:03.770Z,1.30
2024-01-09T17:16:06.639Z,1.35
2024-01-09T17:19:09.046Z,1.40
2024-01-09T17:22:11.313Z,1.20
2024-01-09T17:25:14.241Z,1.20
2024-01-09T17:28:16.100Z,1.33
2024-01-09T17:31:19.228Z,1.25
2024-01-09T17:34:22.975Z,1.50
2024-01-09T17:37:25.904Z,1.23
2024-01-09T17:40:28.175Z,1.10
2024-01-09T17:43:31.290Z,1.05
2024-01-09T17:46:33.885Z,1.25
2024-01-09T17:49:36.427Z,1.20
2024-01-09T17:52:39.379Z,1.30
2024-01-09T17:55:41.752Z,1.27
2024-01-09T17:58:45.053Z,1.13
2024-01-09T18:01:48.456Z,1.17
2024-01-09T18:04:51.193Z,1.15
2024-01-09T18:07:53.653Z,1.40
2024-01-09T18:10:56.240Z,1.48
2024-01-09T18:13:58.489Z,1.30
2024-01-09T18:17:01.014Z,1.10
2024-01-09T18:20:03.478Z,1.05
2024-01-09T18:23:06.716Z,1.10
2024-01-09T18:26:09.613Z,1.00
2024-01-09T18:29:18.478Z,1.00
2024-01-09T18:32:24.705Z,1.10
2024-01-09T18:35:28.976Z,1.30
2024-01-09T18:38:31.522Z,1.58
2024-01-09T18:41:33.951Z,1.30
2024-01-09T18:44:36.291Z,1.02
2024-01-09T18:47:39.100Z,1.35
2024-01-09T18:50:42.653Z,1.30
2024-01-09T18:53:45.487Z,1.20
2024-01-09T18:56:50.729Z,1.33
2024-01-09T18:59:53.744Z,1.20
2024-01-09T19:02:56.694Z,1.30
2024-01-09T19:05:59.098Z,1.27
2024-01-09T19:09:01.533Z,1.35
2024-01-09T19:12:04.303Z,1.20
2024-01-09T19:15:06.887Z,1.05
2024-01-09T19:18:10.048Z,1.02
2024-01-09T19:21:12.809Z,1.10
2024-01-09T19:24:15.372Z,1.20
2024-01-09T19:27:17.507Z,1.17
2024-01-09T19:30:19.676Z,1.10
2024-01-09T19:33:22.344Z,1.30
2024-01-09T19:36:24.928Z,1.20
2024-01-09T19:39:27.380Z,1.27
2024-01-09T19:42:29.782Z,1.30
2024-01-09T19:45:32.734Z,1.13
2024-01-09T19:48:35.385Z,1.20
2024-01-09T19:51:37.849Z,1.40
2024-01-09T19:54:40.891Z,1.20
2024-01-09T19:57:43.267Z,1.38
2024-01-09T20:00:46.003Z,1.13
2024-01-09T20:03:49.025Z,0.98
2024-01-09T20:06:51.601Z,1.00
2024-01-09T20:09:54.571Z,1.10
2024-01-09T20:12:57.430Z,1.10
2024-01-09T20:16:00.014Z,1.20
2024-01-09T20:19:02.208Z,1.10
2024-01-09T20:22:04.416Z,1.25
2024-01-09T20:25:06.964Z,1.20
2024-01-09T20:28:09.350Z,1.08
2024-01-09T20:31:11.781Z,1.10
2024-01-09T20:34:14.290Z,1.00
2024-01-09T20:37:17.455Z,1.10
2024-01-09T20:40:19.868Z,1.25
2024-01-09T20:43:22.299Z,1.30
2024-01-09T20:46:25.247Z,1.10
2024-01-09T20:49:28.026Z,1.50
2024-01-09T20:52:30.863Z,1.30
2024-01-09T20:55:33.824Z,1.20
2024-01-09T20:58:36.757Z,0.90
2024-01-09T21:01:39.293Z,1.10
2024-01-09T21:04:42.420Z,1.02
2024-01-09T21:07:45.200Z,1.35
2024-01-09T21:10:47.430Z,1.00
2024-01-09T21:13:50.188Z,1.17
2024-01-09T21:16:53.193Z,0.93
2024-01-09T21:19:55.795Z,1.10
2024-01-09T21:22:58.907Z,1.20
2024-01-09T21:26:01.407Z,1.15
2024-01-09T21:29:04.518Z,1.10
2024-01-09T21:32:06.931Z,1.40
2024-01-09T21:35:09.872Z,1.17
2024-01-09T21:38:12.664Z,1.10
2024-01-09T21:41:15.241Z,1.20
2024-01-09T21:44:17.925Z,1.10
2024-01-09T21:47:20.622Z,1.08
2024-01-09T21:50:23.660Z,1.20
2024-01-09T21:53:27.094Z,1.10
2024-01-09T21:56:29.777Z,1.05
2024-01-09T21:59:32.248Z,1.10
2024-01-09T22:02:34.686Z,1.38
2024-01-09T22:05:37.608Z,1.10
2024-01-09T22:08:40.382Z,1.10
2024-01-09T22:11:44.093Z,1.00
2024-01-09T22:14:46.741Z,1.15
2024-01-09T22:17:49.868Z,1.40
2024-01-09T22:20:52.163Z,1.30
2024-01-09T22:23:54.620Z,1.20
2024-01-09T22:26:57.320Z,1.20
2024-01-09T22:29:59.786Z,1.30
2024-01-09T22:33:02.095Z,1.10
2024-01-09T22:36:04.704Z,1.30
2024-01-09T22:39:07.125Z,1.10
2024-01-09T22:42:09.530Z,1.40
2024-01-09T22:45:12.308Z,1.10
2024-01-09T22:48:15.661Z,0.95
2024-01-09T22:51:18.196Z,1.00
2024-01-09T22:54:20.446Z,1.10
2024-01-09T22:57:22.891Z,1.10
2024-01-09T23:00:25.827Z,1.20
2024-01-09T23:03:28.291Z,1.20
2024-01-09T23:06:31.399Z,1.13
2024-01-09T23:09:34.766Z,1.20
2024-01-09T23:12:37.299Z,1.20
2024-01-09T23:15:40.310Z,1.30
2024-01-09T23:18:42.825Z,1.08
2024-01-09T23:21:45.396Z,1.10
2024-01-09T23:24:47.808Z,1.20
2024-01-09T23:27:50.461Z,1.20
2024-01-09T23:30:53.442Z,1.17
2024-01-09T23:33:56.014Z,1.30
2024-01-09T23:36:58.436Z,1.25
2024-01-09T23:40:00.586Z,1.15
2024-01-09T23:43:03.154Z,1.20
2024-01-09T23:46:06.179Z,1.02
2024-01-09T23:49:08.629Z,1.08
2024-01-09T23:52:11.322Z,1.20
2024-01-09T23:55:13.726Z,1.17
2024-01-09T23:58:16.197Z,1.20
